createdAt,value
2022-11-22T00:00:47.577Z,-1.84
2022-11-22T00:03:15.076Z,-1.83
2022-11-22T00:05:42.573Z,-1.84
2022-11-22T00:08:10.463Z,-1.83
2022-11-22T00:10:39.604Z,-1.87
2022-11-22T00:13:07.109Z,-1.86
2022-11-22T00:15:34.945Z,-1.88
2022-11-22T00:18:02.560Z,-1.88
2022-11-22T00:20:30.187Z,-1.89
2022-11-22T00:23:00.786Z,-1.90
2022-11-22T00:25:28.336Z,-1.90
2022-11-22T00:27:57.136Z,-1.92
2022-11-22T00:30:24.679Z,-1.92
2022-11-22T00:32:52.193Z,-1.92
2022-11-22T00:35:19.701Z,-1.91
2022-11-22T00:37:47.741Z,-1.91
2022-11-22T00:40:15.677Z,-1.93
2022-11-22T00:42:43.276Z,-1.93
2022-11-22T00:45:12.703Z,-1.95
2022-11-22T00:47:40.245Z,-1.95
2022-11-22T00:50:08.357Z,-1.96
2022-11-22T00:52:35.889Z,-1.94
2022-11-22T00:55:03.456Z,-1.94
2022-11-22T00:57:31.082Z,-1.94
2022-11-22T00:59:58.604Z,-1.93
2022-11-22T01:02:27.540Z,-1.93
2022-11-22T01:04:55.012Z,-1.93
2022-11-22T01:07:22.623Z,-1.91
2022-11-22T01:09:50.130Z,-1.90
2022-11-22T01:12:17.668Z,-1.90
2022-11-22T01:14:45.153Z,-1.90
2022-11-22T01:17:12.768Z,-1.89
2022-11-22T01:19:41.827Z,-1.89
2022-11-22T01:22:09.364Z,-1.89
2022-11-22T01:24:36.840Z,-1.86
2022-11-22T01:27:04.400Z,-1.85
2022-11-22T01:29:32.081Z,-1.83
2022-11-22T01:31:59.806Z,-1.81
2022-11-22T01:34:27.398Z,-1.81
2022-11-22T01:36:56.316Z,-1.82
2022-11-22T01:39:23.800Z,-1.82
2022-11-22T01:41:51.308Z,-1.81
2022-11-22T01:44:20.304Z,-1.81
2022-11-22T01:46:50.242Z,-1.80
2022-11-22T01:49:27.247Z,-1.79
2022-11-22T01:52:00.666Z,-1.80
2022-11-22T01:54:33.298Z,-1.79
2022-11-22T01:57:06.650Z,-1.79
2022-11-22T01:59:36.523Z,-1.78
2022-11-22T02:02:05.250Z,-1.79
2022-11-22T02:04:33.862Z,-1.78
2022-11-22T02:07:09.560Z,-1.79
2022-11-22T02:09:38.760Z,-1.81
2022-11-22T02:12:09.345Z,-1.82
2022-11-22T02:14:39.337Z,-1.82
2022-11-22T02:17:07.102Z,-1.83
2022-11-22T02:19:41.536Z,-1.83
2022-11-22T02:22:20.559Z,-1.84
2022-11-22T02:24:55.529Z,-1.84
2022-11-22T02:27:24.769Z,-1.84
2022-11-22T02:29:52.349Z,-1.83
2022-11-22T02:32:19.901Z,-1.83
2022-11-22T02:34:48.837Z,-1.82
2022-11-22T02:37:20.212Z,-1.82
2022-11-22T02:39:49.183Z,-1.82
2022-11-22T02:42:16.844Z,-1.81
2022-11-22T02:44:45.720Z,-1.81
2022-11-22T02:47:13.329Z,-1.81
2022-11-22T02:49:40.853Z,-1.83
2022-11-22T02:52:08.346Z,-1.83
2022-11-22T02:54:35.879Z,-1.86
2022-11-22T02:57:03.845Z,-1.86
2022-11-22T02:59:31.877Z,-1.88
2022-11-22T03:02:03.429Z,-1.89
2022-11-22T03:04:31.367Z,-1.90
2022-11-22T03:07:00.919Z,-1.89
2022-11-22T03:09:29.558Z,-1.90
2022-11-22T03:11:57.262Z,-1.91
2022-11-22T03:14:25.143Z,-1.90
2022-11-22T03:16:52.907Z,-1.90
2022-11-22T03:19:22.366Z,-1.90
2022-11-22T03:21:49.876Z,-1.91
2022-11-22T03:24:17.481Z,-1.92
2022-11-22T03:26:47.901Z,-1.93
2022-11-22T03:29:15.742Z,-1.92
2022-11-22T03:31:43.244Z,-1.92
2022-11-22T03:34:12.349Z,-1.94
2022-11-22T03:36:41.134Z,-1.94
2022-11-22T03:39:08.729Z,-1.96
2022-11-22T03:41:36.230Z,-1.96
2022-11-22T03:44:04.909Z,-1.96
2022-11-22T03:46:32.456Z,-1.98
2022-11-22T03:48:59.943Z,-1.98
2022-11-22T03:51:27.562Z,-1.99
2022-11-22T03:53:56.419Z,-1.98
2022-11-22T03:56:23.908Z,-1.98
2022-11-22T03:58:51.462Z,-1.98
2022-11-22T04:01:19.038Z,-2.00
2022-11-22T04:03:46.689Z,-1.98
2022-11-22T04:06:14.194Z,-1.99
2022-11-22T04:08:41.822Z,-1.98
2022-11-22T04:11:10.788Z,-1.98
2022-11-22T04:13:55.985Z,-1.98
2022-11-22T04:16:23.546Z,-1.97
2022-11-22T04:18:51.054Z,-1.97
2022-11-22T04:21:35.612Z,-1.99
2022-11-22T04:24:20.985Z,-1.97
2022-11-22T04:26:50.292Z,-1.99
2022-11-22T04:29:19.968Z,-1.99
2022-11-22T04:32:05.844Z,-1.96
2022-11-22T04:34:33.660Z,-1.96
2022-11-22T04:37:01.932Z,-1.95
2022-11-22T04:39:29.956Z,-1.93
2022-11-22T04:42:17.368Z,-1.94
2022-11-22T04:44:45.913Z,-1.93
2022-11-22T04:47:37.819Z,-1.91
2022-11-22T04:50:28.833Z,-1.89
2022-11-22T04:52:56.318Z,-1.87
2022-11-22T04:55:24.349Z,-1.87
2022-11-22T04:57:58.863Z,-1.86
2022-11-22T05:00:28.239Z,-1.85
2022-11-22T05:02:55.843Z,-1.86
2022-11-22T05:05:23.312Z,-1.84
2022-11-22T05:07:50.889Z,-1.81
2022-11-22T05:10:24.485Z,-1.80
2022-11-22T05:12:55.361Z,-1.79
2022-11-22T05:15:22.874Z,-1.78
2022-11-22T05:17:50.440Z,-1.77
2022-11-22T05:20:18.023Z,-1.76
2022-11-22T05:23:02.970Z,-1.76
2022-11-22T05:25:30.623Z,-1.74
2022-11-22T05:27:59.447Z,-1.73
2022-11-22T05:30:26.909Z,-1.71
2022-11-22T05:32:55.970Z,-1.69
2022-11-22T05:35:23.507Z,-1.68
2022-11-22T05:37:51.007Z,-1.68
2022-11-22T05:40:18.447Z,-1.66
2022-11-22T05:42:45.894Z,-1.65
2022-11-22T05:45:14.865Z,-1.65
2022-11-22T05:47:42.676Z,-1.64
2022-11-22T05:50:11.083Z,-1.63
2022-11-22T05:52:39.301Z,-1.62
2022-11-22T05:55:07.922Z,-1.62
2022-11-22T05:57:35.441Z,-1.61
2022-11-22T06:00:03.457Z,-1.61
2022-11-22T06:02:42.669Z,-1.60
2022-11-22T06:05:12.202Z,-1.59
2022-11-22T06:07:41.321Z,-1.59
2022-11-22T06:10:11.277Z,-1.59
2022-11-22T06:12:41.190Z,-1.58
2022-11-22T06:15:11.722Z,-1.56
2022-11-22T06:17:45.145Z,-1.57
2022-11-22T06:23:54.905Z,-1.54
2022-11-22T06:27:18.319Z,-1.51
2022-11-22T06:31:46.888Z,-1.51
2022-11-22T06:45:41.135Z,-1.48
2022-11-22T06:49:11.102Z,-1.48
2022-11-22T06:51:52.415Z,-1.47
2022-11-22T06:59:17.052Z,-1.39
2022-11-22T07:01:53.972Z,-1.34
2022-11-22T07:04:23.099Z,-1.34
2022-11-22T07:06:53.196Z,-1.33
2022-11-22T07:09:21.320Z,-1.31
2022-11-22T07:11:49.449Z,-1.29
2022-11-22T07:14:18.170Z,-1.28
2022-11-22T07:16:49.148Z,-1.23
2022-11-22T07:19:17.583Z,-1.20
2022-11-22T07:21:45.987Z,-1.18
2022-11-22T07:24:19.469Z,-1.16
2022-11-22T07:26:47.798Z,-1.14
2022-11-22T07:29:16.679Z,-1.10
2022-11-22T07:31:48.134Z,-1.09
2022-11-22T07:34:18.107Z,-1.08
2022-11-22T07:39:43.675Z,-1.05
2022-11-22T07:42:58.584Z,-1.04
2022-11-22T07:45:47.745Z,-1.03
2022-11-22T07:51:36.225Z,-1.03
2022-11-22T07:54:57.863Z,-1.02
2022-11-22T08:01:55.020Z,-1.00
2022-11-22T08:11:42.380Z,-0.98
2022-11-22T08:14:54.262Z,-0.98
2022-11-22T08:17:39.575Z,-0.96
2022-11-22T08:20:15.105Z,-0.94
2022-11-22T08:23:01.902Z,-0.90
2022-11-22T08:25:32.805Z,-0.88
2022-11-22T08:28:13.728Z,-0.86
2022-11-22T08:30:48.191Z,-0.84
2022-11-22T08:33:31.497Z,-0.84
2022-11-22T08:36:08.479Z,-0.83
2022-11-22T08:38:45.321Z,-0.82
2022-11-22T08:41:30.498Z,-0.82
2022-11-22T08:52:06.283Z,-0.76
2022-11-22T08:59:50.080Z,-0.67
2022-11-22T09:09:42.471Z,-0.66
2022-11-22T09:14:15.437Z,-0.62
2022-11-22T09:18:08.603Z,-0.56
2022-11-22T09:21:16.483Z,-0.51
2022-11-22T09:24:31.441Z,-0.46
2022-11-22T09:27:02.796Z,-0.43
2022-11-22T09:30:08.158Z,-0.42
2022-11-22T09:32:36.838Z,-0.38
2022-11-22T09:35:11.911Z,-0.37
2022-11-22T09:37:40.219Z,-0.33
2022-11-22T09:40:21.473Z,-0.29
2022-11-22T09:43:25.998Z,-0.27
2022-11-22T09:46:44.690Z,-0.22
2022-11-22T09:50:10.580Z,-0.21
2022-11-22T09:53:13.234Z,-0.19
2022-11-22T10:00:35.405Z,-0.13
2022-11-22T10:19:49.493Z,0.03
2022-11-22T10:22:19.494Z,0.03
2022-11-22T10:24:48.266Z,0.07
2022-11-22T10:27:18.106Z,0.10
2022-11-22T10:29:53.789Z,0.14
2022-11-22T10:32:28.807Z,0.20
2022-11-22T10:35:14.656Z,0.23
2022-11-22T10:37:52.270Z,0.27
2022-11-22T10:40:27.100Z,0.28
2022-11-22T10:43:12.252Z,0.26
2022-11-22T10:45:47.528Z,0.29
2022-11-22T10:48:29.102Z,0.29
2022-11-22T10:51:20.377Z,0.32
2022-11-22T10:54:39.067Z,0.32
2022-11-22T10:57:41.264Z,0.35
2022-11-22T11:00:39.403Z,0.40
2022-11-22T11:03:22.235Z,0.41
2022-11-22T11:09:54.886Z,0.46
2022-11-22T11:13:03.332Z,0.47
2022-11-22T11:15:56.064Z,0.50
2022-11-22T11:26:07.056Z,0.60
2022-11-22T11:29:01.923Z,0.63
2022-11-22T11:51:21.885Z,0.79
2022-11-22T11:55:04.461Z,0.81
2022-11-22T11:57:46.655Z,0.83
2022-11-22T12:00:24.789Z,0.85
2022-11-22T12:03:07.572Z,0.87
2022-11-22T12:05:38.954Z,0.90
2022-11-22T12:08:49.217Z,0.91
2022-11-22T12:11:52.267Z,0.92
2022-11-22T12:14:37.748Z,0.95
2022-11-22T12:17:28.903Z,0.98
2022-11-22T12:20:06.908Z,1.00
2022-11-22T12:22:49.782Z,1.01
2022-11-22T12:25:36.600Z,1.04
2022-11-22T12:28:20.149Z,1.05
2022-11-22T12:30:57.678Z,1.05
2022-11-22T12:37:25.346Z,1.06
2022-11-22T12:39:57.077Z,1.08
2022-11-22T12:42:35.702Z,1.07
2022-11-22T12:45:18.445Z,1.08
2022-11-22T12:47:51.845Z,1.08
2022-11-22T12:50:39.916Z,1.10
2022-11-22T12:53:14.330Z,1.12
2022-11-22T12:55:49.947Z,1.13
2022-11-22T12:58:22.357Z,1.16
2022-11-22T13:01:05.729Z,1.19
2022-11-22T13:03:39.721Z,1.20
2022-11-22T13:06:09.874Z,1.19
2022-11-22T13:08:42.832Z,1.18
2022-11-22T13:11:17.472Z,1.20
2022-11-22T13:13:48.705Z,1.23
2022-11-22T13:16:16.389Z,1.27
2022-11-22T13:18:47.685Z,1.25
2022-11-22T13:21:23.363Z,1.26
2022-11-22T13:24:08.961Z,1.24
2022-11-22T13:26:43.304Z,1.26
2022-11-22T13:29:21.999Z,1.26
2022-11-22T13:32:04.523Z,1.25
2022-11-22T13:34:33.960Z,1.25
2022-11-22T13:37:10.898Z,1.27
2022-11-22T13:39:44.368Z,1.31
2022-11-22T13:42:18.570Z,1.33
2022-11-22T13:45:13.503Z,1.36
2022-11-22T13:47:43.112Z,1.38
2022-11-22T13:50:57.042Z,1.39
2022-11-22T13:53:28.944Z,1.38
2022-11-22T13:55:58.101Z,1.36
2022-11-22T13:58:52.492Z,1.34
2022-11-22T14:01:58.228Z,1.33
2022-11-22T14:04:34.878Z,1.33
2022-11-22T14:07:05.911Z,1.34
2022-11-22T14:09:38.319Z,1.34
2022-11-22T14:12:24.085Z,1.33
2022-11-22T14:15:12.663Z,1.33
2022-11-22T14:17:51.796Z,1.32
2022-11-22T14:20:35.963Z,1.34
2022-11-22T14:23:11.382Z,1.34
2022-11-22T14:25:56.590Z,1.32
2022-11-22T14:28:59.515Z,1.31
2022-11-22T14:31:32.075Z,1.31
2022-11-22T14:34:21.809Z,1.32
2022-11-22T14:37:37.887Z,1.34
2022-11-22T14:40:27.102Z,1.36
2022-11-22T14:43:00.663Z,1.37
2022-11-22T14:45:39.672Z,1.36
2022-11-22T14:48:17.595Z,1.36
2022-11-22T14:50:49.113Z,1.37
2022-11-22T14:53:24.163Z,1.37
2022-11-22T14:55:55.745Z,1.35
2022-11-22T14:58:26.716Z,1.34
2022-11-22T15:01:16.197Z,1.33
2022-11-22T15:09:21.286Z,1.31
2022-11-22T15:09:21.751Z,1.33
2022-11-22T15:10:25.719Z,1.33
2022-11-22T15:13:08.966Z,1.34
2022-11-22T15:59:01.638Z,1.32
2022-11-22T16:01:29.529Z,1.33
2022-11-22T16:03:59.601Z,1.33
2022-11-22T16:06:30.737Z,1.33
2022-11-22T16:09:01.573Z,1.35
2022-11-22T16:11:34.725Z,1.35
2022-11-22T16:14:02.278Z,1.36
2022-11-22T16:16:31.481Z,1.35
2022-11-22T16:19:21.972Z,1.34
2022-11-22T16:22:28.569Z,1.34
2022-11-22T16:25:23.475Z,1.36
2022-11-22T16:27:52.360Z,1.34
2022-11-22T16:30:23.602Z,1.32
2022-11-22T16:32:53.732Z,1.34
2022-11-22T16:35:29.455Z,1.32
2022-11-22T16:37:57.397Z,1.31
2022-11-22T16:40:24.976Z,1.31
2022-11-22T16:42:54.021Z,1.31
2022-11-22T16:45:22.952Z,1.29
2022-11-22T16:48:03.810Z,1.30
2022-11-22T16:50:39.776Z,1.29
2022-11-22T16:53:12.146Z,1.29
2022-11-22T16:55:40.210Z,1.29
2022-11-22T16:58:16.398Z,1.27
2022-11-22T17:00:44.975Z,1.28
2022-11-22T17:03:15.538Z,1.30
2022-11-22T17:05:43.019Z,1.33
2022-11-22T17:08:13.425Z,1.36
2022-11-22T17:10:43.898Z,1.34
2022-11-22T17:13:17.247Z,1.35
2022-11-22T17:15:45.264Z,1.39
2022-11-22T17:18:12.718Z,1.42
2022-11-22T17:20:40.615Z,1.45
2022-11-22T17:23:13.965Z,1.48
2022-11-22T17:25:41.497Z,1.46
2022-11-22T17:28:08.923Z,1.44
2022-11-22T17:30:37.994Z,1.44
2022-11-22T17:33:05.528Z,1.44
2022-11-22T17:35:37.063Z,1.42
2022-11-22T17:38:05.217Z,1.41
2022-11-22T17:40:32.764Z,1.43
2022-11-22T17:43:00.341Z,1.44
2022-11-22T17:45:28.069Z,1.45
2022-11-22T17:47:56.856Z,1.45
2022-11-22T17:50:24.371Z,1.45
2022-11-22T17:52:52.878Z,1.46
2022-11-22T17:55:20.339Z,1.46
2022-11-22T17:57:51.609Z,1.47
2022-11-22T18:00:28.428Z,1.49
2022-11-22T18:03:01.488Z,1.50
2022-11-22T18:05:35.450Z,1.54
2022-11-22T18:08:03.038Z,1.55
2022-11-22T18:10:30.583Z,1.55
2022-11-22T18:13:20.331Z,1.54
2022-11-22T18:15:46.210Z,1.54
2022-11-22T18:18:40.311Z,1.53
2022-11-22T18:21:04.022Z,1.50
2022-11-22T18:23:33.996Z,1.47
2022-11-22T18:26:38.831Z,1.45
2022-11-22T18:29:16.115Z,1.45
2022-11-22T18:31:51.235Z,1.45
2022-11-22T18:34:27.436Z,1.46
2022-11-22T18:37:00.450Z,1.46
2022-11-22T18:39:36.291Z,1.48
2022-11-22T18:42:05.217Z,1.49
2022-11-22T18:44:32.715Z,1.47
2022-11-22T18:47:00.270Z,1.47
2022-11-22T18:49:29.436Z,1.46
2022-11-22T18:51:57.307Z,1.47
2022-11-22T18:55:00.440Z,1.49
2022-11-22T18:57:47.346Z,1.50
2022-11-22T19:00:17.198Z,1.50
2022-11-22T19:02:45.717Z,1.49
2022-11-22T19:05:15.318Z,1.47
2022-11-22T19:07:44.124Z,1.48
2022-11-22T19:10:11.804Z,1.49
2022-11-22T19:12:39.401Z,1.49
2022-11-22T19:15:08.138Z,1.50
2022-11-22T19:17:39.029Z,1.53
2022-11-22T19:20:39.239Z,1.52
2022-11-22T19:23:50.937Z,1.53
2022-11-22T19:26:56.067Z,1.53
2022-11-22T19:29:26.968Z,1.52
2022-11-22T19:36:09.930Z,1.55
2022-11-22T19:38:42.041Z,1.56
2022-11-22T19:41:20.335Z,1.58
2022-11-22T19:43:54.089Z,1.60
2022-11-22T19:46:21.621Z,1.61
2022-11-22T19:48:55.003Z,1.63
2022-11-22T19:51:24.076Z,1.66
2022-11-22T19:54:20.913Z,1.67
2022-11-22T19:56:50.800Z,1.69
2022-11-22T19:59:19.732Z,1.68
2022-11-22T20:01:50.572Z,1.67
2022-11-22T20:04:21.446Z,1.66
2022-11-22T20:06:50.529Z,1.66
2022-11-22T20:09:28.466Z,1.65
2022-11-22T20:12:00.813Z,1.64
2022-11-22T20:14:39.255Z,1.65
2022-11-22T20:17:07.177Z,1.66
2022-11-22T20:19:35.539Z,1.67
2022-11-22T20:22:06.371Z,1.68
2022-11-22T20:24:42.158Z,1.69
2022-11-22T20:27:13.973Z,1.70
2022-11-22T20:29:45.046Z,1.73
2022-11-22T20:32:20.712Z,1.75
2022-11-22T20:34:51.464Z,1.76
2022-11-22T20:37:46.730Z,1.76
2022-11-22T20:40:14.516Z,1.76
2022-11-22T20:42:46.707Z,1.78
2022-11-22T20:45:23.861Z,1.77
2022-11-22T20:48:16.705Z,1.78
2022-11-22T20:50:50.841Z,1.78
2022-11-22T20:53:18.960Z,1.76
2022-11-22T20:56:10.722Z,1.75
2022-11-22T21:01:29.544Z,1.70
2022-11-22T21:03:57.155Z,1.68
2022-11-22T21:06:42.464Z,1.70
2022-11-22T21:09:20.650Z,1.68
2022-11-22T21:11:54.156Z,1.68
2022-11-22T21:14:21.703Z,1.69
2022-11-22T21:16:50.592Z,1.68
2022-11-22T21:19:18.590Z,1.70
2022-11-22T21:21:46.198Z,1.70
2022-11-22T21:24:13.992Z,1.70
2022-11-22T21:26:41.833Z,1.69
2022-11-22T21:29:16.485Z,1.69
2022-11-22T21:31:44.549Z,1.72
2022-11-22T21:34:15.900Z,1.73
2022-11-22T21:36:43.759Z,1.76
2022-11-22T21:39:11.551Z,1.76
2022-11-22T21:41:40.879Z,1.77
2022-11-22T21:44:09.372Z,1.79
2022-11-22T21:46:37.502Z,1.81
2022-11-22T21:49:05.182Z,1.81
2022-11-22T21:51:34.173Z,1.79
2022-11-22T21:54:02.888Z,1.77
2022-11-22T21:56:31.591Z,1.76
2022-11-22T21:58:59.374Z,1.74
2022-11-22T22:01:27.763Z,1.73
2022-11-22T22:03:55.761Z,1.71
2022-11-22T22:06:23.602Z,1.68
2022-11-22T22:08:52.594Z,1.65
2022-11-22T22:11:20.208Z,1.67
2022-11-22T22:13:47.669Z,1.68
2022-11-22T22:16:19.019Z,1.68
2022-11-22T22:18:47.170Z,1.68
2022-11-22T22:21:15.768Z,1.66
2022-11-22T22:23:44.896Z,1.65
2022-11-22T22:26:15.320Z,1.65
2022-11-22T22:28:44.174Z,1.64
2022-11-22T22:31:13.726Z,1.63
2022-11-22T22:33:42.396Z,1.59
2022-11-22T22:36:11.305Z,1.60
2022-11-22T22:38:39.733Z,1.59
2022-11-22T22:41:08.316Z,1.55
2022-11-22T22:43:40.201Z,1.54
2022-11-22T22:46:10.662Z,1.53
2022-11-22T22:48:38.457Z,1.52
2022-11-22T22:51:08.052Z,1.50
2022-11-22T22:53:35.848Z,1.50
2022-11-22T22:56:03.776Z,1.48
2022-11-22T22:58:31.287Z,1.47
2022-11-22T23:01:07.159Z,1.45
2022-11-22T23:03:34.802Z,1.42
2022-11-22T23:06:06.266Z,1.41
2022-11-22T23:08:33.775Z,1.39
2022-11-22T23:11:06.431Z,1.37
2022-11-22T23:13:36.280Z,1.35
2022-11-22T23:16:04.059Z,1.35
2022-11-22T23:18:36.419Z,1.34
2022-11-22T23:21:05.340Z,1.34
2022-11-22T23:23:33.174Z,1.34
2022-11-22T23:26:02.749Z,1.32
2022-11-22T23:28:30.319Z,1.34
2022-11-22T23:30:58.111Z,1.33
2022-11-22T23:33:25.657Z,1.35
2022-11-22T23:35:54.464Z,1.35
2022-11-22T23:38:21.980Z,1.37
2022-11-22T23:40:53.742Z,1.38
2022-11-22T23:43:21.270Z,1.41
2022-11-22T23:45:48.757Z,1.42
2022-11-22T23:48:16.684Z,1.43
2022-11-22T23:50:44.364Z,1.42
2022-11-22T23:53:13.205Z,1.44
2022-11-22T23:55:40.671Z,1.42
2022-11-22T23:58:08.305Z,1.41
